メインページ
METAR-TAF:

METAR-TAF

空港 :

新千歳空港

千歳, 日本

緯度: 42-48N, 経度: 141-40E, 海抜: 27m

現時点の気象観測

当レポートは32分前の08:00(UTC)に作成
北/北東の風 2kt
気温 -6°C
湿度 68%
気圧 1018 hPa
視程10km以上
高度2500ftの雲はほとんどない
高度5000ftの雲は散在している
千切れ雲あり

METAR: RJCC 130800Z 03002KT 9999 FEW025 SCT050 BKN/// M06/M11 Q1018

時間: 17:32 (08:32 UTC)

予報

当レポートは3時間26分前の05:06(UTC)に作成
予報は13日の 06時(UTC)から 14日の 12時(UTC)まで有効
の風 5kt
視程10km以上
高度800ftの雲はほとんどない
高度2000ftの千切れ雲あり
13日の 10時(UTC)から 13日の 13時(UTC)まで一時的に
視程: 3000m
弱いにわか雪
13日の 21時(UTC)から 14日の 03時(UTC)まで一時的に
視程: 2000m
弱いにわか雪
14日の 00時(UTC)から 14日の 03時(UTC)まで徐々に
北/北西の風 15kt
14日の 03時(UTC)から 14日の 09時(UTC)まで一時的に
視程: 1500m
高度300ftの雲はほとんどない
高度600ftの千切れ雲あり
弱いにわか雪
14日の 09時(UTC)から 14日の 12時(UTC)まで一時的に
視程: 3000m
弱いにわか雪

TAF: RJCC 130506Z 1306/1412 35005KT 9999 FEW008 BKN020 TEMPO 1310/1313 3000 -SHSN TEMPO 1321/1403 2000 -SHSN BECMG 1400/1403 34015KT TEMPO 1403/1409 1500 -SHSN FEW003 BKN006 TEMPO 1409/1412 3000 -SHSN

4,000以上の空港の気象観測と天気予報(METAR報とTAF報)

利用可能な観測所は地図上に黄色い丸と赤い丸で示す。

丸の上にカーソルを重ねると観測所名を参照できる。

次にクリックすると気象観測と天気予報を参照できる。

マップの切り替え:黒色「×」印の緑ボタンをクリックして拡大、「-」印の緑ボタンをクリックして縮小、緑色の三角印をクリックして隣りの地図に切り替え


METAR-TAF: